createdAt,value
2023-04-25T00:00:23.272Z,84.38
2023-04-25T00:02:49.865Z,85.51
2023-04-25T00:05:17.323Z,85.80
2023-04-25T00:07:43.796Z,85.10
2023-04-25T00:10:11.949Z,84.93
2023-04-25T00:12:38.760Z,84.49
2023-04-25T00:15:05.416Z,84.77
2023-04-25T00:17:32.445Z,85.79
2023-04-25T00:19:59.345Z,85.24
2023-04-25T00:22:25.673Z,85.83
2023-04-25T00:24:54.241Z,85.90
2023-04-25T00:27:20.735Z,85.74
2023-04-25T00:29:47.079Z,85.17
2023-04-25T00:32:13.513Z,86.72
2023-04-25T00:34:39.918Z,85.17
2023-04-25T00:37:06.950Z,86.30
2023-04-25T00:39:33.337Z,86.45
2023-04-25T00:41:59.756Z,86.54
2023-04-25T00:44:27.965Z,86.40
2023-04-25T00:46:54.858Z,86.16
2023-04-25T00:49:21.225Z,87.60
2023-04-25T00:51:47.625Z,86.98
2023-04-25T00:54:13.972Z,87.34
2023-04-25T00:56:40.354Z,88.12
2023-04-25T00:59:06.721Z,87.69
2023-04-25T01:01:33.306Z,87.64
2023-04-25T01:03:59.908Z,87.18
2023-04-25T01:06:26.307Z,86.60
2023-04-25T01:08:52.826Z,87.06
2023-04-25T01:11:19.329Z,86.97
2023-04-25T01:13:45.684Z,87.33
2023-04-25T01:16:12.303Z,87.47
2023-04-25T01:18:41.519Z,87.63
2023-04-25T01:21:08.858Z,87.42
2023-04-25T01:23:35.211Z,87.40
2023-04-25T01:26:01.763Z,86.75
2023-04-25T01:28:28.383Z,87.03
2023-04-25T01:30:54.729Z,87.04
2023-04-25T01:33:22.034Z,87.86
2023-04-25T01:35:48.494Z,86.84
2023-04-25T01:38:15.597Z,87.69
2023-04-25T01:40:42.274Z,87.71
2023-04-25T01:43:11.969Z,87.41
2023-04-25T01:45:42.004Z,87.20
2023-04-25T01:48:11.790Z,87.55
2023-04-25T01:50:39.057Z,87.06
2023-04-25T01:53:05.776Z,86.92
2023-04-25T01:55:32.206Z,87.55
2023-04-25T01:57:59.450Z,86.96
2023-04-25T02:00:25.808Z,87.54
2023-04-25T02:02:54.427Z,87.39
2023-04-25T02:05:21.768Z,86.91
2023-04-25T02:07:48.292Z,87.60
2023-04-25T02:10:14.653Z,87.40
2023-04-25T02:12:41.134Z,87.13
2023-04-25T02:15:07.734Z,87.07
2023-04-25T02:17:34.598Z,86.96
2023-04-25T02:20:01.040Z,87.30
2023-04-25T02:22:27.924Z,87.45
2023-04-25T02:24:54.702Z,87.41
2023-04-25T02:27:21.059Z,88.17
2023-04-25T02:29:47.447Z,88.63
2023-04-25T02:32:13.812Z,87.60
2023-04-25T02:34:40.450Z,87.81
2023-04-25T02:37:06.829Z,87.11
2023-04-25T02:39:33.178Z,88.16
2023-04-25T02:41:59.736Z,87.77
2023-04-25T02:44:26.103Z,88.12
2023-04-25T02:46:52.852Z,87.84
2023-04-25T02:49:19.240Z,88.24
2023-04-25T02:51:45.677Z,88.90
2023-04-25T02:54:12.063Z,88.42
2023-04-25T02:56:38.534Z,87.73
2023-04-25T02:59:04.928Z,88.22
2023-04-25T03:01:31.441Z,87.49
2023-04-25T03:03:57.804Z,87.64
2023-04-25T03:06:24.204Z,87.12
2023-04-25T03:08:50.895Z,87.97
2023-04-25T03:11:17.243Z,88.00
2023-04-25T03:13:43.679Z,87.67
2023-04-25T03:16:10.145Z,87.77
2023-04-25T03:18:36.504Z,88.28
2023-04-25T03:21:03.049Z,87.96
2023-04-25T03:23:29.455Z,87.88
2023-04-25T03:25:55.832Z,88.18
2023-04-25T03:28:22.693Z,87.85
2023-04-25T03:30:49.073Z,88.73
2023-04-25T03:33:15.537Z,88.62
2023-04-25T03:35:42.066Z,87.94
2023-04-25T03:38:08.459Z,88.28
2023-04-25T03:40:34.788Z,88.84
2023-04-25T03:43:01.124Z,88.66
2023-04-25T03:45:27.563Z,88.99
2023-04-25T03:47:53.950Z,89.10
2023-04-25T03:50:20.968Z,87.06
2023-04-25T03:52:47.425Z,86.44
2023-04-25T03:55:13.790Z,85.70
2023-04-25T03:57:40.220Z,86.61
2023-04-25T04:00:07.695Z,85.01
2023-04-25T04:02:35.884Z,85.55
2023-04-25T04:05:02.646Z,84.76
2023-04-25T04:07:29.239Z,85.73
2023-04-25T04:09:55.671Z,85.57
2023-04-25T04:12:22.094Z,85.48
2023-04-25T04:14:48.574Z,85.79
2023-04-25T04:17:14.902Z,86.14
2023-04-25T04:19:42.109Z,86.07
2023-04-25T04:22:08.561Z,86.02
2023-04-25T04:24:36.332Z,85.47
2023-04-25T04:27:02.679Z,85.90
2023-04-25T04:29:29.063Z,85.74
2023-04-25T04:31:55.626Z,86.28
2023-04-25T04:34:23.089Z,86.15
2023-04-25T04:36:49.602Z,86.10
2023-04-25T04:39:16.087Z,85.21
2023-04-25T04:41:43.851Z,85.89
2023-04-25T04:44:11.369Z,86.19
2023-04-25T04:46:42.952Z,85.82
2023-04-25T04:49:09.960Z,85.86
2023-04-25T04:51:36.580Z,86.23
2023-04-25T04:54:03.583Z,86.46
2023-04-25T04:56:31.924Z,86.12
2023-04-25T04:58:58.636Z,85.93
2023-04-25T05:01:25.426Z,85.90
2023-04-25T05:03:55.299Z,86.03
2023-04-25T05:06:21.934Z,85.76
2023-04-25T05:08:48.328Z,85.67
2023-04-25T05:11:14.745Z,86.06
2023-04-25T05:13:41.162Z,86.24
2023-04-25T05:16:07.532Z,86.20
2023-04-25T05:18:35.984Z,85.66
2023-04-25T05:21:02.373Z,84.97
2023-04-25T05:23:29.763Z,85.18
2023-04-25T05:25:57.351Z,84.47
2023-04-25T05:28:23.731Z,83.74
2023-04-25T05:30:50.054Z,84.05
2023-04-25T05:33:19.237Z,82.96
2023-04-25T05:35:45.887Z,82.46
2023-04-25T05:38:12.238Z,82.74
2023-04-25T05:40:41.182Z,82.66
2023-04-25T05:43:08.229Z,82.71
2023-04-25T05:45:34.580Z,82.32
2023-04-25T05:48:01.004Z,82.76
2023-04-25T05:50:27.479Z,82.39
2023-04-25T05:52:53.808Z,81.49
2023-04-25T05:55:20.175Z,82.07
2023-04-25T05:57:46.593Z,81.98
2023-04-25T06:00:13.787Z,81.65
2023-04-25T06:02:40.436Z,81.96
2023-04-25T06:05:07.471Z,81.45
2023-04-25T06:07:34.081Z,81.77
2023-04-25T06:10:02.177Z,81.88
2023-04-25T06:12:28.549Z,81.81
2023-04-25T06:14:55.306Z,82.00
2023-04-25T06:17:21.696Z,81.58
2023-04-25T06:19:48.108Z,80.99
2023-04-25T06:22:17.155Z,81.24
2023-04-25T06:24:43.460Z,80.86
2023-04-25T06:27:09.833Z,80.82
2023-04-25T06:29:36.217Z,80.47
2023-04-25T06:32:02.622Z,80.22
2023-04-25T06:34:29.084Z,80.27
2023-04-25T06:36:55.461Z,80.68
2023-04-25T06:39:24.194Z,80.50
2023-04-25T06:41:50.772Z,80.07
2023-04-25T06:44:17.269Z,81.14
2023-04-25T06:46:43.662Z,80.76
2023-04-25T06:49:10.630Z,80.98
2023-04-25T06:51:36.964Z,81.21
2023-04-25T06:54:05.160Z,80.73
2023-04-25T06:56:31.998Z,80.52
2023-04-25T06:58:58.410Z,79.74
2023-04-25T07:01:24.893Z,79.46
2023-04-25T07:03:51.953Z,79.06
2023-04-25T07:06:18.583Z,78.50
2023-04-25T07:08:44.910Z,78.00
2023-04-25T07:11:11.734Z,77.89
2023-04-25T07:13:38.209Z,77.45
2023-04-25T07:16:04.874Z,77.64
2023-04-25T07:18:31.292Z,77.43
2023-04-25T07:20:59.941Z,77.43
2023-04-25T07:23:26.364Z,76.42
2023-04-25T07:25:52.766Z,76.40
2023-04-25T07:28:19.712Z,76.92
2023-04-25T07:30:46.221Z,75.93
2023-04-25T07:33:12.699Z,76.44
2023-04-25T07:35:39.384Z,76.35
2023-04-25T07:38:07.603Z,75.95
2023-04-25T07:40:35.324Z,75.63
2023-04-25T07:43:01.674Z,75.38
2023-04-25T07:45:28.129Z,75.68
2023-04-25T07:47:54.562Z,75.74
2023-04-25T07:50:23.491Z,75.35
2023-04-25T07:52:49.865Z,74.65
2023-04-25T07:55:16.567Z,74.93
2023-04-25T07:57:42.916Z,74.42
2023-04-25T08:00:13.719Z,73.82
2023-04-25T08:02:41.440Z,74.49
2023-04-25T08:05:09.540Z,74.91
2023-04-25T08:07:36.213Z,74.22
2023-04-25T08:10:02.606Z,73.32
2023-04-25T08:12:28.967Z,73.43
2023-04-25T08:14:55.442Z,73.11
2023-04-25T08:17:21.972Z,72.57
2023-04-25T08:19:48.432Z,72.54
2023-04-25T08:22:15.774Z,70.72
2023-04-25T08:24:42.558Z,71.62
2023-04-25T08:27:08.956Z,71.32
2023-04-25T08:29:38.171Z,70.73
2023-04-25T08:32:04.625Z,69.72
2023-04-25T08:34:31.031Z,70.11
2023-04-25T08:36:57.421Z,69.04
2023-04-25T08:39:25.911Z,69.57
2023-04-25T08:41:56.100Z,69.85
2023-04-25T08:44:23.009Z,69.37
2023-04-25T08:46:51.522Z,68.86
2023-04-25T08:49:18.066Z,69.16
2023-04-25T08:51:47.486Z,67.63
2023-04-25T08:56:46.789Z,67.62
2023-04-25T08:59:13.350Z,66.98
2023-04-25T09:01:39.913Z,65.96
2023-04-25T09:04:06.516Z,66.18
2023-04-25T09:06:33.237Z,67.95
2023-04-25T09:09:04.247Z,67.64
2023-04-25T09:11:30.837Z,68.00
2023-04-25T09:14:15.739Z,67.14
2023-04-25T09:16:57.411Z,66.53
2023-04-25T09:19:38.234Z,67.73
2023-04-25T09:22:06.719Z,67.99
2023-04-25T09:24:40.039Z,67.64
2023-04-25T09:27:13.559Z,68.12
2023-04-25T09:29:40.799Z,67.95
2023-04-25T09:32:23.569Z,67.72
2023-04-25T09:34:51.237Z,68.43
2023-04-25T09:37:23.740Z,68.78
2023-04-25T09:39:51.054Z,67.50
2023-04-25T09:42:17.750Z,68.13
2023-04-25T09:44:47.366Z,68.14
2023-04-25T09:47:14.520Z,67.85
2023-04-25T09:49:42.664Z,67.52
2023-04-25T09:52:09.340Z,68.81
2023-04-25T09:54:35.819Z,68.22
2023-04-25T09:57:13.682Z,66.69
2023-04-25T09:59:41.311Z,68.27
2023-04-25T10:02:09.668Z,67.65
2023-04-25T10:04:36.636Z,67.48
2023-04-25T10:07:04.333Z,68.45
2023-04-25T10:09:33.336Z,67.72
2023-04-25T10:11:59.745Z,67.65
2023-04-25T10:14:26.571Z,67.26
2023-04-25T10:16:54.680Z,67.17
2023-04-25T10:19:21.579Z,66.39
2023-04-25T10:21:49.853Z,67.03
2023-04-25T10:24:16.438Z,67.03
2023-04-25T10:26:42.846Z,66.79
2023-04-25T10:29:09.505Z,66.65
2023-04-25T10:31:38.693Z,66.59
2023-04-25T10:34:06.398Z,66.31
2023-04-25T10:36:33.047Z,64.63
2023-04-25T10:39:01.277Z,65.74
2023-04-25T10:41:27.684Z,65.83
2023-04-25T10:44:00.734Z,65.97
2023-04-25T10:46:28.436Z,65.97
2023-04-25T10:49:01.298Z,66.45
2023-04-25T10:51:40.100Z,66.31
2023-04-25T10:54:18.285Z,66.62
2023-04-25T10:56:45.564Z,66.97
2023-04-25T10:59:12.813Z,67.52
2023-04-25T11:01:43.042Z,67.12
2023-04-25T11:04:28.799Z,66.83
2023-04-25T11:07:24.554Z,66.30
2023-04-25T11:09:51.147Z,66.85
2023-04-25T11:12:18.550Z,65.92
2023-04-25T11:14:45.013Z,66.74
2023-04-25T11:17:12.169Z,66.39
2023-04-25T11:19:38.628Z,66.01
2023-04-25T11:22:04.960Z,66.32
2023-04-25T11:24:32.009Z,66.03
2023-04-25T11:27:03.321Z,65.09
2023-04-25T11:29:30.324Z,64.24
2023-04-25T11:31:59.194Z,64.13
2023-04-25T11:34:26.259Z,64.56
2023-04-25T11:36:56.181Z,64.17
2023-04-25T11:39:22.951Z,63.52
2023-04-25T11:41:49.294Z,64.19
2023-04-25T11:44:19.116Z,64.10
2023-04-25T11:46:47.778Z,64.10
2023-04-25T11:49:14.819Z,64.31
2023-04-25T11:51:49.134Z,63.66
2023-04-25T11:54:16.411Z,63.76
2023-04-25T11:56:43.409Z,63.96
2023-04-25T11:59:10.610Z,64.27
2023-04-25T12:01:38.882Z,62.59
2023-04-25T12:04:15.609Z,61.97
2023-04-25T12:06:42.662Z,61.88
2023-04-25T12:09:10.094Z,62.07
2023-04-25T12:12:08.687Z,61.58
2023-04-25T12:14:36.052Z,62.17
2023-04-25T12:17:03.842Z,61.68
2023-04-25T12:19:46.104Z,60.95
2023-04-25T12:22:22.790Z,61.22
2023-04-25T12:24:49.256Z,61.21
2023-04-25T12:27:17.247Z,61.18
2023-04-25T12:29:51.596Z,61.49
2023-04-25T12:32:18.821Z,61.77
2023-04-25T12:34:45.943Z,61.27
2023-04-25T12:37:12.771Z,61.36
2023-04-25T12:39:42.930Z,62.03
2023-04-25T12:42:12.368Z,62.69
2023-04-25T12:44:39.119Z,62.00
2023-04-25T12:47:16.952Z,62.76
2023-04-25T12:49:43.405Z,63.44
2023-04-25T12:52:09.767Z,64.08
2023-04-25T12:54:36.344Z,63.33
2023-04-25T12:57:03.989Z,64.08
2023-04-25T12:59:30.577Z,64.72
2023-04-25T13:01:57.007Z,63.92
2023-04-25T13:04:23.524Z,63.90
2023-04-25T13:06:50.004Z,64.39
2023-04-25T13:09:16.611Z,65.34
2023-04-25T13:11:43.185Z,64.83
2023-04-25T13:14:09.525Z,64.24
2023-04-25T13:16:36.130Z,65.03
2023-04-25T13:19:02.564Z,64.85
2023-04-25T13:21:31.903Z,65.14
2023-04-25T13:23:58.642Z,63.67
2023-04-25T13:26:25.071Z,64.23
2023-04-25T13:28:51.405Z,64.76
2023-04-25T13:31:19.128Z,64.47
2023-04-25T13:33:45.619Z,64.91
2023-04-25T13:36:13.092Z,64.99
2023-04-25T13:38:40.481Z,65.58
2023-04-25T13:41:08.278Z,64.95
2023-04-25T13:43:34.971Z,63.65
2023-04-25T13:46:01.391Z,64.85
2023-04-25T13:48:27.901Z,65.24
2023-04-25T13:50:54.326Z,64.45
2023-04-25T13:53:20.756Z,64.15
2023-04-25T13:55:47.105Z,65.15
2023-04-25T13:58:13.501Z,63.63
2023-04-25T14:00:40.562Z,63.58
2023-04-25T14:03:08.834Z,64.81
2023-04-25T14:05:39.081Z,63.03
2023-04-25T14:08:09.383Z,63.47
2023-04-25T14:10:36.071Z,63.14
2023-04-25T14:13:04.071Z,62.10
2023-04-25T14:15:31.777Z,63.48
2023-04-25T14:17:58.337Z,62.48
2023-04-25T14:20:24.994Z,63.42
2023-04-25T14:22:51.509Z,63.15
2023-04-25T14:25:17.880Z,62.12
2023-04-25T14:27:48.371Z,62.95
2023-04-25T14:30:14.832Z,63.59
2023-04-25T14:32:41.283Z,64.59
2023-04-25T14:35:08.208Z,63.98
2023-04-25T14:37:34.612Z,65.31
2023-04-25T14:40:00.935Z,65.89
2023-04-25T14:42:27.284Z,65.52
2023-04-25T14:44:53.706Z,66.28
2023-04-25T14:47:20.112Z,67.41
2023-04-25T14:49:52.103Z,66.26
2023-04-25T14:52:18.760Z,66.36
2023-04-25T14:54:45.233Z,65.83
2023-04-25T14:57:16.031Z,66.28
2023-04-25T14:59:42.591Z,66.84
2023-04-25T15:02:08.908Z,66.74
2023-04-25T15:04:35.777Z,67.03
2023-04-25T15:07:02.554Z,67.16
2023-04-25T15:09:29.748Z,65.56
2023-04-25T15:11:56.331Z,64.83
2023-04-25T15:14:23.888Z,64.57
2023-04-25T15:16:51.441Z,64.44
2023-04-25T15:19:17.910Z,63.60
2023-04-25T15:21:44.340Z,64.02
2023-04-25T15:24:12.950Z,64.17
2023-04-25T15:26:39.307Z,63.80
2023-04-25T15:29:06.835Z,64.44
2023-04-25T15:31:33.355Z,63.85
2023-04-25T15:33:59.816Z,63.61
2023-04-25T15:36:26.634Z,63.90
2023-04-25T15:38:52.995Z,63.46
2023-04-25T15:41:19.377Z,64.05
2023-04-25T15:43:46.988Z,63.75
2023-04-25T15:46:15.492Z,64.28
2023-04-25T15:48:41.880Z,63.53
2023-04-25T15:51:08.283Z,62.95
2023-04-25T15:53:34.697Z,63.02
2023-04-25T15:56:01.238Z,62.32
2023-04-25T15:58:27.779Z,62.67
2023-04-25T16:00:55.591Z,65.56
2023-04-25T16:03:22.417Z,63.21
2023-04-25T16:05:48.989Z,63.69
2023-04-25T16:08:15.399Z,63.72
2023-04-25T16:10:42.165Z,63.60
2023-04-25T16:13:08.572Z,63.77
2023-04-25T16:15:35.754Z,63.67
2023-04-25T16:18:02.326Z,63.02
2023-04-25T16:20:28.817Z,63.75
2023-04-25T16:22:55.522Z,62.89
2023-04-25T16:25:22.621Z,63.23
2023-04-25T16:27:48.989Z,63.00
2023-04-25T16:30:15.496Z,62.86
2023-04-25T16:32:44.088Z,63.35
2023-04-25T16:35:12.205Z,63.16
2023-04-25T16:37:38.636Z,63.33
2023-04-25T16:40:08.061Z,63.29
2023-04-25T16:42:34.436Z,63.67
2023-04-25T16:45:00.772Z,63.76
2023-04-25T16:47:27.164Z,64.39
2023-04-25T16:49:53.727Z,63.51
2023-04-25T16:52:22.016Z,63.87
2023-04-25T16:54:48.364Z,64.05
2023-04-25T16:57:14.829Z,64.82
2023-04-25T16:59:41.546Z,63.90
2023-04-25T17:02:08.557Z,64.03
2023-04-25T17:04:35.205Z,64.08
2023-04-25T17:07:01.760Z,64.12
2023-04-25T17:09:29.241Z,63.29
2023-04-25T17:11:58.379Z,62.73
2023-04-25T17:14:24.721Z,62.14
2023-04-25T17:16:51.169Z,61.94
2023-04-25T17:19:17.573Z,61.78
2023-04-25T17:21:44.140Z,61.28
2023-04-25T17:24:10.506Z,60.89
2023-04-25T17:26:37.598Z,60.68
2023-04-25T17:29:06.183Z,60.78
2023-04-25T17:31:32.857Z,60.17
2023-04-25T17:33:59.892Z,59.87
2023-04-25T17:36:26.311Z,60.26
2023-04-25T17:38:52.956Z,58.29
2023-04-25T17:41:20.891Z,58.45
2023-04-25T17:43:47.318Z,58.72
2023-04-25T17:46:13.948Z,58.11
2023-04-25T17:48:40.437Z,57.62
2023-04-25T17:51:07.512Z,57.68
2023-04-25T17:53:33.889Z,57.26
2023-04-25T17:56:00.282Z,56.29
2023-04-25T17:58:27.201Z,56.31
2023-04-25T18:00:53.556Z,56.63
2023-04-25T18:03:20.094Z,57.08
2023-04-25T18:05:46.584Z,56.44
2023-04-25T18:08:13.605Z,55.65
2023-04-25T18:10:40.449Z,55.68
2023-04-25T18:13:06.816Z,55.95
2023-04-25T18:15:34.377Z,56.27
2023-04-25T18:18:03.230Z,56.50
2023-04-25T18:20:29.620Z,55.85
2023-04-25T18:22:56.063Z,54.92
2023-04-25T18:25:22.516Z,55.38
2023-04-25T18:27:50.582Z,55.77
2023-04-25T18:30:16.964Z,54.68
2023-04-25T18:32:43.504Z,53.90
2023-04-25T18:35:10.242Z,54.17
2023-04-25T18:37:37.202Z,54.33
2023-04-25T18:40:07.120Z,52.88
2023-04-25T18:42:33.507Z,54.22
2023-04-25T18:44:59.890Z,53.62
2023-04-25T18:47:26.329Z,54.60
2023-04-25T18:49:52.703Z,53.22
2023-04-25T18:52:20.391Z,53.49
2023-04-25T18:54:47.161Z,54.20
2023-04-25T18:57:16.100Z,54.27
2023-04-25T18:59:45.490Z,54.16
2023-04-25T19:02:14.782Z,54.00
2023-04-25T19:04:41.353Z,54.82
2023-04-25T19:07:09.349Z,54.91
2023-04-25T19:09:36.297Z,54.19
2023-04-25T19:12:03.784Z,54.89
2023-04-25T19:14:31.755Z,54.74
2023-04-25T19:16:59.597Z,55.59
2023-04-25T19:19:27.269Z,54.99
2023-04-25T19:21:53.677Z,54.95
2023-04-25T19:24:20.042Z,55.22
2023-04-25T19:26:46.564Z,54.94
2023-04-25T19:29:14.542Z,56.11
2023-04-25T19:31:44.712Z,55.80
2023-04-25T19:34:11.597Z,55.68
2023-04-25T19:36:38.566Z,55.28
2023-04-25T19:39:07.240Z,57.62
2023-04-25T19:41:36.344Z,56.45
2023-04-25T19:44:04.643Z,56.38
2023-04-25T19:46:32.047Z,56.74
2023-04-25T19:48:58.509Z,55.89
2023-04-25T19:51:24.932Z,57.16
2023-04-25T19:53:53.265Z,56.96
2023-04-25T19:56:19.813Z,56.68
2023-04-25T19:58:49.100Z,57.15
2023-04-25T20:01:15.927Z,56.77
2023-04-25T20:03:44.760Z,57.37
2023-04-25T20:06:11.353Z,56.97
2023-04-25T20:08:37.818Z,57.63
2023-04-25T20:11:04.205Z,57.73
2023-04-25T20:13:30.816Z,57.75
2023-04-25T20:15:57.360Z,58.22
2023-04-25T20:18:24.329Z,57.50
2023-04-25T20:20:51.814Z,58.79
2023-04-25T20:23:18.233Z,57.88
2023-04-25T20:25:44.582Z,57.54
2023-04-25T20:28:11.081Z,58.16
2023-04-25T20:30:37.776Z,57.91
2023-04-25T20:33:07.734Z,57.95
2023-04-25T20:35:36.575Z,58.70
2023-04-25T20:38:02.975Z,57.86
2023-04-25T20:40:29.344Z,58.29
2023-04-25T20:42:56.184Z,58.59
2023-04-25T20:45:24.382Z,58.99
2023-04-25T20:47:50.994Z,58.57
2023-04-25T20:50:17.472Z,58.30
2023-04-25T20:52:44.430Z,59.12
2023-04-25T20:55:11.993Z,59.25
2023-04-25T20:57:38.373Z,59.42
2023-04-25T21:00:13.954Z,59.54
2023-04-25T21:02:40.545Z,59.84
2023-04-25T21:05:07.106Z,60.20
2023-04-25T21:07:33.487Z,59.88
2023-04-25T21:09:59.813Z,59.79
2023-04-25T21:12:26.191Z,60.03
2023-04-25T21:14:52.582Z,59.88
2023-04-25T21:17:18.949Z,60.33
2023-04-25T21:19:45.325Z,60.40
2023-04-25T21:22:11.721Z,60.61
2023-04-25T21:24:38.255Z,60.85
2023-04-25T21:27:04.579Z,61.25
2023-04-25T21:29:31.056Z,61.44
2023-04-25T21:31:57.414Z,61.80
2023-04-25T21:34:23.859Z,62.05
2023-04-25T21:36:50.226Z,61.90
2023-04-25T21:39:16.572Z,62.30
2023-04-25T21:41:44.313Z,62.24
2023-04-25T21:44:12.520Z,61.52
2023-04-25T21:46:38.916Z,61.97
2023-04-25T21:49:05.295Z,61.95
2023-04-25T21:51:32.183Z,62.43
2023-04-25T21:54:01.112Z,62.42
2023-04-25T21:56:27.513Z,62.69
2023-04-25T21:58:54.088Z,62.64
2023-04-25T22:01:20.780Z,63.06
2023-04-25T22:03:47.439Z,63.54
2023-04-25T22:06:13.975Z,64.17
2023-04-25T22:08:40.287Z,63.86
2023-04-25T22:11:08.031Z,63.68
2023-04-25T22:13:34.782Z,63.20
2023-04-25T22:16:01.204Z,63.73
2023-04-25T22:18:27.552Z,63.69
2023-04-25T22:20:54.582Z,63.72
2023-04-25T22:23:20.946Z,63.48
2023-04-25T22:25:47.394Z,64.23
2023-04-25T22:28:14.768Z,63.58
2023-04-25T22:30:41.102Z,64.04
2023-04-25T22:33:07.702Z,63.96
2023-04-25T22:35:34.160Z,63.45
2023-04-25T22:38:00.506Z,63.36
2023-04-25T22:40:27.182Z,63.21
2023-04-25T22:42:53.640Z,63.75
2023-04-25T22:45:20.056Z,64.07
2023-04-25T22:47:46.550Z,64.00
2023-04-25T22:50:13.891Z,63.83
2023-04-25T22:52:40.501Z,64.06
2023-04-25T22:55:07.027Z,63.86
2023-04-25T22:57:33.438Z,63.88
2023-04-25T22:59:59.853Z,63.24
2023-04-25T23:02:27.335Z,63.86
2023-04-25T23:04:54.840Z,64.12
2023-04-25T23:07:21.292Z,63.80
2023-04-25T23:09:47.695Z,63.21
2023-04-25T23:12:14.089Z,62.99
2023-04-25T23:14:40.397Z,63.75
2023-04-25T23:17:06.916Z,63.51
2023-04-25T23:19:34.408Z,63.69
2023-04-25T23:22:00.890Z,64.24
2023-04-25T23:24:27.235Z,63.58
2023-04-25T23:26:53.632Z,64.00
2023-04-25T23:29:19.950Z,63.82
2023-04-25T23:31:46.296Z,64.15
2023-04-25T23:34:12.838Z,64.66
2023-04-25T23:36:39.206Z,64.29
2023-04-25T23:39:08.199Z,64.30
2023-04-25T23:41:34.638Z,64.76
2023-04-25T23:44:01.010Z,64.57
2023-04-25T23:46:28.868Z,64.58
2023-04-25T23:48:55.411Z,65.03
2023-04-25T23:51:21.786Z,65.08
2023-04-25T23:53:48.116Z,64.95
2023-04-25T23:56:14.476Z,65.67
2023-04-25T23:58:40.794Z,65.23
